createdAt,value
2019-01-24T00:02:24.141Z,-0.78
2019-01-24T00:05:27.831Z,-0.78
2019-01-24T00:08:31.490Z,-0.74
2019-01-24T00:11:36.183Z,-0.75
2019-01-24T00:14:39.838Z,-0.77
2019-01-24T00:17:43.410Z,-0.72
2019-01-24T00:20:47.059Z,-0.68
2019-01-24T00:23:50.610Z,-0.59
2019-01-24T00:26:54.282Z,-0.65
2019-01-24T00:29:57.790Z,-0.66
2019-01-24T00:33:01.377Z,-0.76
2019-01-24T00:36:04.978Z,-0.80
2019-01-24T00:39:08.994Z,-0.78
2019-01-24T00:42:12.606Z,-0.81
2019-01-24T00:45:16.241Z,-0.74
2019-01-24T00:48:19.846Z,-0.65
2019-01-24T00:51:23.452Z,-0.55
2019-01-24T00:54:27.016Z,-0.60
2019-01-24T00:57:30.611Z,-0.62
2019-01-24T01:00:34.284Z,-0.67
2019-01-24T01:03:37.939Z,-0.71
2019-01-24T01:06:41.595Z,-0.78
2019-01-24T01:09:45.239Z,-0.82
2019-01-24T01:12:48.856Z,-0.85
2019-01-24T01:15:52.460Z,-0.85
2019-01-24T01:18:56.023Z,-0.81
2019-01-24T01:21:59.618Z,-0.78
2019-01-24T01:25:03.312Z,-0.84
2019-01-24T01:28:06.909Z,-0.84
2019-01-24T01:31:10.488Z,-0.89
2019-01-24T01:34:14.142Z,-0.89
2019-01-24T01:37:17.650Z,-0.90
2019-01-24T01:40:21.314Z,-0.99
2019-01-24T01:43:24.829Z,-1.08
2019-01-24T01:46:29.429Z,-1.05
2019-01-24T01:49:32.998Z,-1.02
2019-01-24T01:52:36.685Z,-0.98
2019-01-24T01:55:40.168Z,-0.94
2019-01-24T01:58:43.736Z,-0.91
2019-01-24T02:01:47.342Z,-0.88
2019-01-24T02:04:50.932Z,-0.89
2019-01-24T02:07:54.565Z,-0.90
2019-01-24T02:10:58.146Z,-0.84
2019-01-24T02:14:01.735Z,-0.83
2019-01-24T02:17:05.291Z,-0.83
2019-01-24T02:20:11.859Z,-0.88
2019-01-24T02:23:15.426Z,-0.99
2019-01-24T02:26:19.061Z,-0.97
2019-01-24T02:29:22.612Z,-0.91
2019-01-24T02:32:26.192Z,-0.89
2019-01-24T02:35:29.721Z,-0.93
2019-01-24T02:38:33.207Z,-0.90
2019-01-24T02:41:36.762Z,-0.84
2019-01-24T02:44:40.270Z,-0.76
2019-01-24T02:47:43.922Z,-0.77
2019-01-24T02:50:47.457Z,-0.87
2019-01-24T02:53:51.083Z,-0.93
2019-01-24T02:56:54.640Z,-0.91
2019-01-24T02:59:58.190Z,-0.90
2019-01-24T03:03:01.856Z,-0.85
2019-01-24T03:06:05.450Z,-0.75
2019-01-24T03:09:09.001Z,-0.76
2019-01-24T03:12:12.579Z,-0.76
2019-01-24T03:15:17.521Z,-0.71
2019-01-24T03:18:21.133Z,-0.68
2019-01-24T03:21:24.719Z,-0.58
2019-01-24T03:24:28.315Z,-0.77
2019-01-24T03:27:31.851Z,-0.92
2019-01-24T03:30:35.461Z,-0.99
2019-01-24T03:33:39.071Z,-1.09
2019-01-24T03:36:42.695Z,-0.91
2019-01-24T03:39:46.366Z,-0.89
2019-01-24T03:42:49.836Z,-0.97
2019-01-24T03:45:54.007Z,-1.08
2019-01-24T03:48:57.615Z,-1.09
2019-01-24T03:52:01.233Z,-1.15
2019-01-24T03:55:05.889Z,-1.13
2019-01-24T03:58:09.556Z,-1.09
2019-01-24T04:01:13.203Z,-1.01
2019-01-24T04:04:16.842Z,-1.00
2019-01-24T04:07:20.475Z,-1.05
2019-01-24T04:10:24.197Z,-1.21
2019-01-24T04:13:28.893Z,-1.24
2019-01-24T04:16:32.523Z,-1.24
2019-01-24T04:19:36.247Z,-1.24
2019-01-24T04:22:40.214Z,-1.25
2019-01-24T04:25:43.847Z,-1.17
2019-01-24T04:28:47.502Z,-1.20
2019-01-24T04:31:51.029Z,-1.15
2019-01-24T04:34:54.698Z,-1.21
2019-01-24T04:37:58.358Z,-1.22
2019-01-24T04:41:02.058Z,-1.26
2019-01-24T04:44:06.115Z,-1.28
2019-01-24T04:47:09.780Z,-1.30
2019-01-24T04:50:14.800Z,-1.21
2019-01-24T04:53:18.317Z,-1.23
2019-01-24T04:56:21.968Z,-1.28
2019-01-24T04:59:25.624Z,-1.29
2019-01-24T05:02:29.236Z,-1.28
2019-01-24T05:05:33.015Z,-1.17
2019-01-24T05:08:36.630Z,-1.16
2019-01-24T05:11:40.200Z,-1.22
2019-01-24T05:14:43.825Z,-1.29
2019-01-24T05:17:47.487Z,-1.30
2019-01-24T05:20:51.151Z,-1.37
2019-01-24T05:23:54.742Z,-1.42
2019-01-24T05:26:58.370Z,-1.35
2019-01-24T05:30:01.986Z,-1.40
2019-01-24T05:33:05.808Z,-1.37
2019-01-24T05:36:09.420Z,-1.40
2019-01-24T05:39:13.008Z,-1.40
2019-01-24T05:42:16.706Z,-1.36
2019-01-24T05:45:20.510Z,-1.40
2019-01-24T05:48:25.090Z,-1.44
2019-01-24T05:51:28.769Z,-1.43
2019-01-24T05:54:32.427Z,-1.43
2019-01-24T05:57:36.161Z,-1.35
2019-01-24T06:00:41.912Z,-1.24
2019-01-24T06:03:45.654Z,-1.25
2019-01-24T06:06:49.361Z,-1.20
2019-01-24T06:09:52.825Z,-1.17
2019-01-24T06:12:56.369Z,-1.16
2019-01-24T06:16:00.103Z,-1.31
2019-01-24T06:19:03.860Z,-1.36
2019-01-24T06:22:07.421Z,-1.35
2019-01-24T06:25:11.199Z,-1.41
2019-01-24T06:28:14.851Z,-1.49
2019-01-24T06:31:18.763Z,-1.53
2019-01-24T06:34:22.388Z,-1.52
2019-01-24T06:37:26.081Z,-1.55
2019-01-24T06:40:29.655Z,-1.47
2019-01-24T06:43:33.425Z,-1.47
2019-01-24T06:46:37.347Z,-1.50
2019-01-24T06:49:41.080Z,-1.47
2019-01-24T06:52:44.678Z,-1.43
2019-01-24T06:55:48.534Z,-1.41
2019-01-24T06:58:52.180Z,-1.39
2019-01-24T07:01:55.812Z,-1.38
2019-01-24T07:04:59.514Z,-1.34
2019-01-24T07:08:03.275Z,-1.35
2019-01-24T07:11:06.922Z,-1.35
2019-01-24T07:14:10.476Z,-1.35
2019-01-24T07:17:14.041Z,-1.40
2019-01-24T07:20:17.870Z,-1.39
2019-01-24T07:23:21.505Z,-1.35
2019-01-24T07:26:25.144Z,-1.31
2019-01-24T07:29:28.719Z,-1.31
2019-01-24T07:32:32.405Z,-1.28
2019-01-24T07:35:36.147Z,-1.26
2019-01-24T07:38:39.800Z,-1.21
2019-01-24T07:41:43.568Z,-1.23
2019-01-24T07:44:47.161Z,-1.22
2019-01-24T07:47:50.725Z,-1.20
2019-01-24T07:50:54.373Z,-1.19
2019-01-24T07:53:57.969Z,-1.13
2019-01-24T07:57:01.581Z,-1.14
2019-01-24T08:00:07.609Z,-1.16
2019-01-24T08:03:11.284Z,-1.09
2019-01-24T08:06:14.891Z,-1.13
2019-01-24T08:09:18.478Z,-1.23
2019-01-24T08:12:22.107Z,-1.32
2019-01-24T08:15:25.807Z,-1.39
2019-01-24T08:18:29.378Z,-1.31
2019-01-24T08:21:33.032Z,-1.35
2019-01-24T08:24:36.598Z,-1.41
2019-01-24T08:27:40.130Z,-1.46
2019-01-24T08:30:46.125Z,-1.50
2019-01-24T08:33:50.811Z,-1.50
2019-01-24T08:36:54.506Z,-1.54
2019-01-24T08:39:58.119Z,-1.61
2019-01-24T08:43:01.718Z,-1.63
2019-01-24T08:46:05.386Z,-1.67
2019-01-24T08:49:09.052Z,-1.67
2019-01-24T08:52:12.617Z,-1.61
2019-01-24T08:55:22.725Z,-1.53
2019-01-24T08:58:26.415Z,-1.53
2019-01-24T09:01:30.013Z,-1.41
2019-01-24T09:04:33.616Z,-1.34
2019-01-24T09:07:37.350Z,-1.23
2019-01-24T09:10:41.026Z,-1.21
2019-01-24T09:13:44.787Z,-1.36
2019-01-24T09:16:48.491Z,-1.43
2019-01-24T09:19:52.175Z,-1.34
2019-01-24T09:22:55.741Z,-1.27
2019-01-24T09:25:59.386Z,-1.23
2019-01-24T09:29:03.093Z,-1.19
2019-01-24T09:32:06.776Z,-1.11
2019-01-24T09:35:10.790Z,-0.95
2019-01-24T09:38:14.508Z,-1.10
2019-01-24T09:41:18.139Z,-1.22
2019-01-24T09:44:21.745Z,-1.21
2019-01-24T09:47:25.305Z,-1.18
2019-01-24T09:50:29.149Z,-1.12
2019-01-24T09:53:33.759Z,-0.88
2019-01-24T09:56:38.557Z,-0.60
2019-01-24T09:59:42.452Z,-0.75
2019-01-24T10:02:46.478Z,-0.86
2019-01-24T10:05:51.289Z,-0.78
2019-01-24T10:08:55.263Z,-0.92
2019-01-24T10:12:00.013Z,-0.94
2019-01-24T10:15:03.845Z,-1.07
2019-01-24T10:18:07.616Z,-0.93
2019-01-24T10:21:11.303Z,-0.82
2019-01-24T10:24:15.093Z,-0.78
2019-01-24T10:27:18.705Z,-0.66
2019-01-24T10:30:22.851Z,-0.80
2019-01-24T10:33:28.875Z,-1.01
2019-01-24T10:36:33.115Z,-0.93
2019-01-24T10:39:37.093Z,-1.10
2019-01-24T10:42:40.798Z,-0.92
2019-01-24T10:45:45.741Z,-0.93
2019-01-24T10:48:50.838Z,-1.07
2019-01-24T10:51:55.945Z,-1.01
2019-01-24T10:54:59.648Z,-1.00
2019-01-24T10:58:04.032Z,-0.96
2019-01-24T11:01:07.703Z,-0.94
2019-01-24T11:04:11.490Z,-0.86
2019-01-24T11:07:15.201Z,-0.62
2019-01-24T11:10:19.197Z,-0.65
2019-01-24T11:13:22.851Z,-0.50
2019-01-24T11:16:26.721Z,-0.46
2019-01-24T11:19:30.327Z,-0.49
2019-01-24T11:22:34.162Z,-0.68
2019-01-24T11:25:37.854Z,-0.74
2019-01-24T11:28:41.610Z,-0.73
2019-01-24T11:31:45.348Z,-0.82
2019-01-24T11:34:49.965Z,-0.74
2019-01-24T11:37:54.680Z,-0.66
2019-01-24T11:40:58.418Z,-0.75
2019-01-24T11:44:02.082Z,-0.77
2019-01-24T11:47:05.800Z,-0.62
2019-01-24T11:50:12.364Z,-0.78
2019-01-24T11:53:16.196Z,-0.79
2019-01-24T11:56:19.917Z,-0.81
2019-01-24T11:59:23.465Z,-0.73
2019-01-24T12:02:27.333Z,-0.42
2019-01-24T12:05:30.937Z,-0.54
2019-01-24T12:08:34.510Z,-0.56
2019-01-24T12:11:38.145Z,-0.36
2019-01-24T12:14:41.879Z,-0.59
2019-01-24T12:17:46.561Z,-0.49
2019-01-24T12:20:50.075Z,-0.54
2019-01-24T12:23:53.564Z,-0.67
2019-01-24T12:26:57.168Z,-0.54
2019-01-24T12:30:00.767Z,-0.34
2019-01-24T12:33:05.237Z,-0.20
2019-01-24T12:36:08.855Z,-0.50
2019-01-24T12:39:12.361Z,-0.46
2019-01-24T12:42:15.807Z,-0.47
2019-01-24T12:45:24.586Z,-0.62
2019-01-24T12:48:28.136Z,-0.50
2019-01-24T12:51:31.715Z,-0.55
2019-01-24T12:54:35.328Z,-0.40
2019-01-24T12:57:38.996Z,-0.58
2019-01-24T13:00:42.571Z,-0.71
2019-01-24T13:03:46.141Z,-0.71
2019-01-24T13:06:49.800Z,-0.55
2019-01-24T13:09:53.338Z,-0.63
2019-01-24T13:12:57.011Z,-0.64
2019-01-24T13:16:00.579Z,-0.68
2019-01-24T13:19:04.238Z,-0.71
2019-01-24T13:22:07.856Z,-0.71
2019-01-24T13:25:14.200Z,-0.78
2019-01-24T13:28:17.781Z,-0.64
2019-01-24T13:31:21.381Z,-0.71
2019-01-24T13:34:24.937Z,-0.64
2019-01-24T13:37:28.455Z,-0.47
2019-01-24T13:40:32.747Z,-0.43
2019-01-24T13:43:36.370Z,-0.61
2019-01-24T13:46:40.634Z,-0.53
2019-01-24T13:49:43.576Z,-0.74
2019-01-24T13:52:47.186Z,-0.64
2019-01-24T13:55:50.677Z,-0.54
2019-01-24T13:58:54.294Z,-0.50
2019-01-24T14:01:57.935Z,-0.48
2019-01-24T14:05:01.503Z,-0.47
2019-01-24T14:08:05.166Z,-0.66
2019-01-24T14:11:08.754Z,-0.61
2019-01-24T14:14:12.416Z,-0.64
2019-01-24T14:17:15.984Z,-0.58
2019-01-24T14:20:19.676Z,-0.66
2019-01-24T14:23:23.287Z,-0.95
2019-01-24T14:26:26.889Z,-0.89
2019-01-24T14:29:30.730Z,-0.80
2019-01-24T14:32:35.027Z,-0.71
2019-01-24T14:35:38.656Z,-0.69
2019-01-24T14:38:42.283Z,-0.71
2019-01-24T14:41:45.758Z,-0.67
2019-01-24T14:44:49.384Z,-0.78
2019-01-24T14:47:52.937Z,-0.77
2019-01-24T14:50:56.519Z,-0.57
2019-01-24T14:54:00.046Z,-0.46
2019-01-24T14:57:03.745Z,-0.44
2019-01-24T15:00:13.799Z,-0.30
2019-01-24T15:03:17.448Z,-0.22
2019-01-24T15:06:21.088Z,-0.35
2019-01-24T15:09:24.672Z,-0.24
2019-01-24T15:12:28.225Z,-0.36
2019-01-24T15:15:31.957Z,-0.32
2019-01-24T15:18:35.569Z,-0.19
2019-01-24T15:21:39.143Z,-0.23
2019-01-24T15:24:42.746Z,-0.47
2019-01-24T15:27:46.306Z,-0.58
2019-01-24T15:30:49.835Z,-0.56
2019-01-24T15:33:53.359Z,-0.52
2019-01-24T15:36:57.021Z,-0.33
2019-01-24T15:40:00.597Z,-0.26
2019-01-24T15:43:04.293Z,-0.40
2019-01-24T15:46:07.868Z,-0.52
2019-01-24T15:49:11.316Z,-0.55
2019-01-24T15:52:15.913Z,-0.76
2019-01-24T15:55:19.636Z,-0.71
2019-01-24T15:58:23.223Z,-0.92
2019-01-24T16:01:26.672Z,-0.93
2019-01-24T16:04:30.233Z,-0.92
2019-01-24T16:07:33.809Z,-0.91
2019-01-24T16:10:37.413Z,-0.56
2019-01-24T16:13:41.079Z,-0.46
2019-01-24T16:16:48.908Z,-0.65
2019-01-24T16:19:54.230Z,-0.53
2019-01-24T16:22:57.998Z,-0.34
2019-01-24T16:26:01.787Z,-0.35
2019-01-24T16:29:05.450Z,-0.61
2019-01-24T16:32:10.200Z,-0.49
2019-01-24T16:35:13.968Z,-0.33
2019-01-24T16:38:17.536Z,-0.40
2019-01-24T16:41:21.382Z,-0.53
2019-01-24T16:44:25.082Z,-0.70
2019-01-24T16:47:28.857Z,-0.69
2019-01-24T16:50:32.606Z,-0.54
2019-01-24T16:53:36.337Z,-0.45
2019-01-24T16:56:39.978Z,-0.57
2019-01-24T16:59:43.639Z,-0.77
2019-01-24T17:02:47.333Z,-0.80
2019-01-24T17:05:51.122Z,-0.65
2019-01-24T17:08:55.679Z,-0.68
2019-01-24T17:11:59.250Z,-0.50
2019-01-24T17:15:02.865Z,-0.41
2019-01-24T17:18:06.796Z,-0.36
2019-01-24T17:21:10.385Z,-0.33
2019-01-24T17:24:13.973Z,-0.57
2019-01-24T17:27:17.582Z,-0.51
2019-01-24T17:30:22.977Z,-0.42
2019-01-24T17:33:26.660Z,-0.34
2019-01-24T17:36:30.310Z,-0.25
2019-01-24T17:39:34.029Z,-0.35
2019-01-24T17:42:37.698Z,-0.27
2019-01-24T17:45:41.325Z,-0.26
2019-01-24T17:48:44.973Z,-0.40
2019-01-24T17:51:48.737Z,-0.45
2019-01-24T17:54:52.392Z,-0.62
2019-01-24T17:57:56.099Z,-0.58
2019-01-24T18:00:59.742Z,-0.48
2019-01-24T18:04:03.431Z,-0.50
2019-01-24T18:07:07.089Z,-0.49
2019-01-24T18:10:15.176Z,-0.57
2019-01-24T18:13:18.884Z,-0.59
2019-01-24T18:16:22.595Z,-0.50
2019-01-24T18:19:26.226Z,-0.49
2019-01-24T18:22:29.921Z,-0.45
2019-01-24T18:25:33.628Z,-0.55
2019-01-24T18:28:37.259Z,-0.64
2019-01-24T18:31:40.919Z,-0.56
2019-01-24T18:34:44.631Z,-0.49
2019-01-24T18:37:48.494Z,-0.42
2019-01-24T18:40:52.109Z,-0.49
2019-01-24T18:43:55.740Z,-0.66
2019-01-24T18:46:59.477Z,-0.73
2019-01-24T18:50:06.028Z,-0.82
2019-01-24T18:53:09.588Z,-0.76
2019-01-24T18:56:13.331Z,-0.74
2019-01-24T18:59:16.944Z,-0.79
2019-01-24T19:02:20.486Z,-0.71
2019-01-24T19:05:24.160Z,-0.64
2019-01-24T19:08:27.749Z,-0.64
2019-01-24T19:11:31.360Z,-0.55
2019-01-24T19:14:34.971Z,-0.60
2019-01-24T19:17:38.683Z,-0.63
2019-01-24T19:20:42.514Z,-0.71
2019-01-24T19:23:46.203Z,-0.77
2019-01-24T19:26:49.972Z,-0.78
2019-01-24T19:29:53.699Z,-0.83
2019-01-24T19:32:57.498Z,-0.80
2019-01-24T19:36:01.116Z,-0.80
2019-01-24T19:39:06.431Z,-0.73
2019-01-24T19:42:10.078Z,-0.67
2019-01-24T19:45:16.154Z,-0.62
2019-01-24T19:48:20.843Z,-0.65
2019-01-24T19:51:24.664Z,-0.66
2019-01-24T19:54:28.241Z,-0.63
2019-01-24T19:57:31.900Z,-0.56
2019-01-24T20:00:35.494Z,-0.61
2019-01-24T20:03:39.098Z,-0.59
2019-01-24T20:06:42.731Z,-0.60
2019-01-24T20:09:47.307Z,-0.63
2019-01-24T20:12:50.919Z,-0.58
2019-01-24T20:15:54.606Z,-0.61
2019-01-24T20:18:58.264Z,-0.65
2019-01-24T20:22:02.084Z,-0.79
2019-01-24T20:25:06.720Z,-0.75
2019-01-24T20:31:43.584Z,-0.84
2019-01-24T20:34:47.619Z,-0.90
2019-01-24T20:37:51.856Z,-0.92
2019-01-24T20:40:55.932Z,-0.83
2019-01-24T20:43:59.578Z,-0.88
2019-01-24T20:47:03.300Z,-0.92
2019-01-24T20:50:08.180Z,-0.88
2019-01-24T20:53:11.889Z,-0.99
2019-01-24T20:56:15.635Z,-0.94
2019-01-24T20:59:19.301Z,-0.97
2019-01-24T21:02:22.955Z,-0.89
2019-01-24T21:05:26.612Z,-0.85
2019-01-24T21:08:30.321Z,-0.87
2019-01-24T21:11:34.114Z,-0.86
2019-01-24T21:14:37.799Z,-0.85
2019-01-24T21:17:41.372Z,-0.86
2019-01-24T21:20:45.109Z,-0.78
2019-01-24T21:23:48.862Z,-0.73
2019-01-24T21:26:52.499Z,-0.78
2019-01-24T21:29:56.206Z,-0.73
2019-01-24T21:32:59.833Z,-0.79
2019-01-24T21:36:03.518Z,-0.77
2019-01-24T21:39:08.766Z,-0.75
2019-01-24T21:42:12.391Z,-0.79
2019-01-24T21:45:18.385Z,-0.82
2019-01-24T21:48:22.078Z,-0.86
2019-01-24T21:51:25.798Z,-0.92
2019-01-24T21:54:29.528Z,-0.89
2019-01-24T21:57:33.209Z,-0.96
2019-01-24T22:00:37.088Z,-0.97
2019-01-24T22:03:41.526Z,-0.97
2019-01-24T22:06:45.161Z,-0.90
2019-01-24T22:09:48.941Z,-0.98
2019-01-24T22:12:52.529Z,-0.98
2019-01-24T22:15:56.204Z,-0.90
2019-01-24T22:18:59.806Z,-0.89
2019-01-24T22:22:03.511Z,-0.84
2019-01-24T22:25:09.651Z,-0.96
2019-01-24T22:28:13.351Z,-0.86
2019-01-24T22:31:18.001Z,-0.89
2019-01-24T22:34:21.980Z,-0.99
2019-01-24T22:37:25.580Z,-0.98
2019-01-24T22:40:29.431Z,-0.99
2019-01-24T22:43:34.179Z,-1.09
2019-01-24T22:46:37.846Z,-1.10
2019-01-24T22:49:41.427Z,-1.01
2019-01-24T22:52:45.274Z,-1.02
2019-01-24T22:55:49.096Z,-1.03
2019-01-24T22:58:52.842Z,-1.09
2019-01-24T23:02:07.460Z,-1.19
2019-01-24T23:05:11.073Z,-1.18
2019-01-24T23:08:14.851Z,-1.15
2019-01-24T23:11:18.491Z,-1.16
2019-01-24T23:14:22.311Z,-1.06
2019-01-24T23:17:25.963Z,-0.98
2019-01-24T23:20:29.689Z,-0.90
2019-01-24T23:23:33.380Z,-0.72
2019-01-24T23:26:37.070Z,-0.83
2019-01-24T23:29:40.903Z,-0.93
2019-01-24T23:32:44.466Z,-0.89
2019-01-24T23:35:48.246Z,-0.92
2019-01-24T23:38:51.958Z,-0.83
2019-01-24T23:41:55.588Z,-0.88
2019-01-24T23:44:59.262Z,-0.79
2019-01-24T23:48:02.962Z,-0.80
2019-01-24T23:51:06.602Z,-0.88
2019-01-24T23:54:10.226Z,-0.88
2019-01-24T23:57:13.819Z,-0.93
